createdAt,value
2023-08-15T00:01:06.401Z,96.40
2023-08-15T00:04:09.021Z,96.66
2023-08-15T00:07:11.649Z,96.99
2023-08-15T00:10:14.057Z,96.83
2023-08-15T00:13:16.731Z,96.19
2023-08-15T00:16:19.199Z,96.60
2023-08-15T00:19:21.600Z,95.87
2023-08-15T00:22:24.005Z,96.83
2023-08-15T00:25:26.446Z,96.95
2023-08-15T00:28:28.856Z,96.57
2023-08-15T00:31:31.256Z,97.33
2023-08-15T00:34:33.643Z,97.85
2023-08-15T00:37:36.109Z,98.20
2023-08-15T00:40:41.667Z,98.65
2023-08-15T00:43:44.015Z,99.27
2023-08-15T00:46:48.649Z,99.10
2023-08-15T00:49:52.965Z,99.91
2023-08-15T00:52:55.665Z,99.10
2023-08-15T00:55:59.243Z,98.68
2023-08-15T00:59:02.230Z,99.32
2023-08-15T01:02:05.255Z,98.42
2023-08-15T01:05:08.405Z,98.96
2023-08-15T01:08:10.830Z,97.77
2023-08-15T01:11:14.161Z,99.36
2023-08-15T01:14:20.468Z,98.76
2023-08-15T01:17:34.538Z,99.10
2023-08-15T01:20:38.400Z,99.68
2023-08-15T01:23:44.715Z,99.63
2023-08-15T01:26:47.309Z,100.00
2023-08-15T01:29:50.658Z,100.00
2023-08-15T01:33:02.980Z,100.00
2023-08-15T01:36:19.932Z,100.00
2023-08-15T01:39:27.103Z,100.00
2023-08-15T01:42:32.773Z,100.00
2023-08-15T01:45:36.169Z,100.00
2023-08-15T01:48:42.791Z,100.00
2023-08-15T01:51:47.254Z,100.00
2023-08-15T01:54:49.650Z,100.00
2023-08-15T01:57:53.287Z,100.00
2023-08-15T02:00:55.990Z,100.00
2023-08-15T02:03:58.382Z,100.00
2023-08-15T02:07:00.800Z,100.00
2023-08-15T02:10:03.525Z,100.00
2023-08-15T02:13:05.886Z,100.00
2023-08-15T02:16:08.386Z,100.00
2023-08-15T02:19:11.026Z,100.00
2023-08-15T02:22:13.429Z,100.00
2023-08-15T02:25:15.895Z,100.00
2023-08-15T02:28:18.363Z,100.00
2023-08-15T02:31:20.783Z,100.00
2023-08-15T02:34:23.187Z,100.00
2023-08-15T02:37:25.696Z,100.00
2023-08-15T02:40:29.434Z,100.00
2023-08-15T02:43:31.843Z,100.00
2023-08-15T02:46:35.564Z,100.00
2023-08-15T02:49:39.775Z,100.00
2023-08-15T02:52:42.325Z,100.00
2023-08-15T02:55:44.770Z,100.00
2023-08-15T02:58:47.277Z,100.00
2023-08-15T03:01:49.754Z,100.00
2023-08-15T03:04:52.194Z,100.00
2023-08-15T03:07:54.592Z,100.00
2023-08-15T03:10:57.666Z,100.00
2023-08-15T03:14:00.085Z,100.00
2023-08-15T03:17:03.939Z,100.00
2023-08-15T03:20:07.336Z,100.00
2023-08-15T03:23:10.028Z,100.00
2023-08-15T03:26:13.431Z,100.00
2023-08-15T03:29:16.354Z,100.00
2023-08-15T03:32:18.787Z,100.00
2023-08-15T03:35:22.885Z,100.00
2023-08-15T03:38:25.597Z,100.00
2023-08-15T03:41:28.507Z,100.00
2023-08-15T03:44:30.861Z,100.00
2023-08-15T03:47:33.392Z,100.00
2023-08-15T03:50:39.700Z,100.00
2023-08-15T03:53:44.250Z,100.00
2023-08-15T03:56:46.689Z,100.00
2023-08-15T03:59:49.058Z,100.00
2023-08-15T04:02:51.780Z,100.00
2023-08-15T04:05:54.296Z,100.00
2023-08-15T04:08:56.806Z,100.00
2023-08-15T04:11:59.211Z,100.00
2023-08-15T04:15:01.692Z,100.00
2023-08-15T04:18:06.651Z,100.00
2023-08-15T04:21:11.476Z,100.00
2023-08-15T04:24:14.138Z,100.00
2023-08-15T04:27:16.548Z,100.00
2023-08-15T04:30:19.419Z,100.00
2023-08-15T04:33:21.878Z,100.00
2023-08-15T04:36:24.478Z,100.00
2023-08-15T04:39:28.379Z,100.00
2023-08-15T04:42:30.825Z,100.00
2023-08-15T04:45:33.450Z,100.00
2023-08-15T04:48:35.873Z,100.00
2023-08-15T04:51:38.329Z,100.00
2023-08-15T04:54:41.666Z,100.00
2023-08-15T04:57:44.907Z,99.96
2023-08-15T05:00:47.413Z,99.68
2023-08-15T05:03:49.802Z,98.49
2023-08-15T05:06:52.179Z,98.45
2023-08-15T05:09:54.543Z,97.48
2023-08-15T05:13:00.349Z,95.64
2023-08-15T05:16:03.250Z,95.91
2023-08-15T05:19:05.743Z,94.84
2023-08-15T05:22:08.416Z,93.05
2023-08-15T05:25:11.297Z,92.90
2023-08-15T05:28:20.138Z,92.49
2023-08-15T05:31:22.644Z,92.04
2023-08-15T05:34:25.060Z,91.61
2023-08-15T05:37:27.422Z,91.01
2023-08-15T05:40:31.240Z,89.84
2023-08-15T05:43:33.895Z,84.37
2023-08-15T05:46:36.251Z,79.67
2023-08-15T05:49:38.785Z,77.57
2023-08-15T05:52:41.195Z,72.89
2023-08-15T05:55:46.730Z,70.82
2023-08-15T05:58:49.222Z,67.81
2023-08-15T06:01:51.617Z,64.84
2023-08-15T06:04:54.563Z,62.64
2023-08-15T06:07:56.906Z,60.55
2023-08-15T06:10:59.262Z,58.55
2023-08-15T06:14:01.674Z,56.89
2023-08-15T06:17:05.308Z,56.18
2023-08-15T06:20:08.073Z,54.46
2023-08-15T06:23:10.872Z,52.56
2023-08-15T06:26:13.437Z,54.47
2023-08-15T06:29:15.859Z,52.67
2023-08-15T06:32:28.455Z,49.09
2023-08-15T06:35:31.486Z,48.14
2023-08-15T06:38:33.866Z,50.04
2023-08-15T06:41:36.258Z,50.92
2023-08-15T06:44:39.607Z,50.35
2023-08-15T06:47:41.955Z,48.42
2023-08-15T06:50:46.183Z,46.80
2023-08-15T06:53:54.126Z,43.80
2023-08-15T06:56:56.585Z,41.29
2023-08-15T06:59:59.003Z,40.84
2023-08-15T07:03:01.506Z,40.71
2023-08-15T07:06:05.396Z,40.95
2023-08-15T07:09:08.014Z,38.90
2023-08-15T07:12:11.117Z,38.80
2023-08-15T07:15:13.469Z,38.20
2023-08-15T07:18:15.838Z,37.86
2023-08-15T07:21:18.208Z,36.62
2023-08-15T07:24:20.758Z,35.69
2023-08-15T07:27:23.176Z,36.42
2023-08-15T07:30:25.633Z,34.41
2023-08-15T07:33:28.390Z,37.79
2023-08-15T07:36:31.014Z,36.85
2023-08-15T07:39:33.482Z,37.14
2023-08-15T07:42:36.363Z,35.30
2023-08-15T07:45:38.776Z,35.89
2023-08-15T07:48:41.311Z,35.78
2023-08-15T07:51:43.702Z,34.39
2023-08-15T07:54:46.732Z,34.47
2023-08-15T07:57:49.169Z,35.94
2023-08-15T08:00:51.523Z,35.70
2023-08-15T08:03:53.879Z,34.23
2023-08-15T08:06:56.326Z,32.34
2023-08-15T08:10:00.434Z,32.27
2023-08-15T08:13:02.934Z,31.88
2023-08-15T08:16:05.919Z,30.31
2023-08-15T08:19:08.383Z,30.10
2023-08-15T08:22:10.751Z,29.57
2023-08-15T08:25:31.001Z,31.42
2023-08-15T08:28:33.647Z,30.35
2023-08-15T08:31:36.109Z,29.96
2023-08-15T08:34:38.549Z,28.95
2023-08-15T08:37:40.970Z,30.19
2023-08-15T08:40:43.439Z,30.38
2023-08-15T08:43:45.967Z,29.43
2023-08-15T08:46:48.442Z,28.61
2023-08-15T08:49:53.707Z,27.90
2023-08-15T08:52:56.457Z,28.03
2023-08-15T08:55:59.146Z,30.25
2023-08-15T08:59:06.486Z,29.40
2023-08-15T09:02:14.894Z,26.85
2023-08-15T09:05:17.874Z,27.17
2023-08-15T09:08:20.251Z,29.56
2023-08-15T09:11:22.615Z,26.61
2023-08-15T09:14:25.023Z,30.49
2023-08-15T09:17:28.149Z,28.65
2023-08-15T09:20:30.620Z,27.86
2023-08-15T09:23:33.166Z,26.41
2023-08-15T09:26:36.573Z,27.28
2023-08-15T09:29:39.001Z,28.12
2023-08-15T09:32:45.963Z,29.86
2023-08-15T09:35:57.964Z,27.52
2023-08-15T09:39:01.393Z,28.39
2023-08-15T09:42:03.959Z,28.71
2023-08-15T09:45:08.565Z,26.72
2023-08-15T09:48:11.446Z,27.22
2023-08-15T09:51:17.052Z,29.14
2023-08-15T09:54:20.133Z,26.92
2023-08-15T09:57:22.918Z,28.35
2023-08-15T10:00:25.604Z,27.49
2023-08-15T10:03:34.898Z,27.10
2023-08-15T10:06:37.805Z,25.10
2023-08-15T10:09:41.318Z,27.10
2023-08-15T10:12:46.822Z,24.76
2023-08-15T10:15:51.021Z,25.93
2023-08-15T10:18:55.574Z,26.10
2023-08-15T10:21:57.971Z,28.80
2023-08-15T10:25:29.376Z,30.79
2023-08-15T10:28:35.283Z,32.54
2023-08-15T10:31:40.209Z,33.15
2023-08-15T10:34:42.673Z,30.21
2023-08-15T10:37:47.953Z,32.76
2023-08-15T10:40:53.075Z,33.01
2023-08-15T10:43:56.942Z,33.00
2023-08-15T10:46:59.475Z,30.89
2023-08-15T10:50:02.090Z,31.64
2023-08-15T10:53:06.757Z,32.23
2023-08-15T10:56:10.660Z,31.12
2023-08-15T10:59:16.963Z,28.63
2023-08-15T11:02:19.531Z,27.01
2023-08-15T11:05:22.443Z,29.92
2023-08-15T11:08:24.832Z,31.82
2023-08-15T11:11:27.182Z,29.99
2023-08-15T11:14:29.765Z,30.42
2023-08-15T11:17:32.166Z,30.18
2023-08-15T11:20:34.987Z,28.95
2023-08-15T11:23:37.930Z,30.18
2023-08-15T11:26:44.058Z,30.12
2023-08-15T11:29:57.257Z,28.98
2023-08-15T11:32:59.853Z,31.60
2023-08-15T11:36:07.634Z,28.63
2023-08-15T11:39:14.079Z,30.89
2023-08-15T11:42:16.891Z,31.76
2023-08-15T11:45:22.480Z,30.23
2023-08-15T11:48:24.966Z,29.43
2023-08-15T11:51:27.425Z,32.43
2023-08-15T11:54:29.826Z,32.61
2023-08-15T11:57:38.489Z,30.78
2023-08-15T12:00:41.002Z,29.30
2023-08-15T12:03:43.523Z,30.37
2023-08-15T12:06:46.463Z,32.21
2023-08-15T12:09:49.060Z,29.58
2023-08-15T12:12:52.729Z,30.69
2023-08-15T12:15:55.089Z,28.05
2023-08-15T12:18:58.296Z,29.80
2023-08-15T12:22:00.653Z,31.29
2023-08-15T12:25:03.047Z,30.82
2023-08-15T12:28:06.118Z,30.82
2023-08-15T12:31:08.475Z,29.52
2023-08-15T12:34:10.930Z,30.00
2023-08-15T12:37:13.346Z,29.54
2023-08-15T12:40:30.054Z,28.34
2023-08-15T12:43:33.442Z,30.01
2023-08-15T12:46:35.858Z,29.85
2023-08-15T12:49:39.739Z,31.37
2023-08-15T12:52:42.150Z,32.60
2023-08-15T12:55:46.479Z,33.33
2023-08-15T12:58:48.982Z,32.79
2023-08-15T13:01:51.405Z,31.75
2023-08-15T13:04:53.904Z,30.79
2023-08-15T13:07:56.420Z,30.63
2023-08-15T13:10:58.829Z,31.62
2023-08-15T13:14:02.265Z,31.32
2023-08-15T13:17:05.374Z,30.70
2023-08-15T13:20:08.507Z,29.15
2023-08-15T13:23:11.237Z,29.82
2023-08-15T13:26:14.348Z,31.21
2023-08-15T13:29:16.742Z,32.86
2023-08-15T13:32:19.094Z,33.88
2023-08-15T13:35:21.484Z,33.76
2023-08-15T13:38:24.185Z,35.58
2023-08-15T13:41:26.729Z,35.60
2023-08-15T13:44:29.076Z,35.77
2023-08-15T13:47:31.508Z,35.53
2023-08-15T13:50:34.182Z,35.12
2023-08-15T13:53:36.558Z,35.94
2023-08-15T13:56:39.429Z,33.15
2023-08-15T13:59:42.151Z,35.56
2023-08-15T14:02:44.808Z,35.64
2023-08-15T14:05:47.374Z,36.70
2023-08-15T14:08:49.772Z,36.93
2023-08-15T14:11:52.163Z,37.32
2023-08-15T14:14:54.601Z,38.48
2023-08-15T14:17:57.046Z,38.56
2023-08-15T14:20:59.453Z,36.95
2023-08-15T14:24:03.746Z,35.80
2023-08-15T14:27:06.295Z,35.97
2023-08-15T14:30:09.418Z,36.15
2023-08-15T14:33:13.269Z,37.05
2023-08-15T14:36:15.732Z,34.22
2023-08-15T14:39:18.233Z,35.35
2023-08-15T14:42:21.069Z,35.77
2023-08-15T14:45:23.724Z,34.78
2023-08-15T14:48:26.273Z,34.91
2023-08-15T14:51:29.096Z,35.86
2023-08-15T14:54:31.538Z,36.47
2023-08-15T14:57:33.918Z,35.81
2023-08-15T15:00:36.467Z,35.72
2023-08-15T15:03:39.092Z,35.01
2023-08-15T15:06:41.756Z,37.07
2023-08-15T15:09:44.203Z,38.66
2023-08-15T15:12:48.140Z,38.96
2023-08-15T15:15:54.301Z,38.78
2023-08-15T15:18:57.171Z,40.13
2023-08-15T15:22:00.647Z,40.22
2023-08-15T15:25:03.105Z,39.50
2023-08-15T15:28:05.985Z,39.56
2023-08-15T15:31:08.383Z,39.93
2023-08-15T15:34:10.828Z,41.45
2023-08-15T15:37:13.203Z,40.39
2023-08-15T15:40:15.637Z,40.41
2023-08-15T15:43:18.089Z,40.46
2023-08-15T15:46:20.563Z,42.92
2023-08-15T15:49:23.498Z,42.21
2023-08-15T15:52:25.953Z,44.46
2023-08-15T15:55:28.387Z,47.78
2023-08-15T15:58:30.748Z,45.94
2023-08-15T16:01:33.197Z,47.45
2023-08-15T16:04:35.690Z,47.32
2023-08-15T16:07:38.270Z,43.38
2023-08-15T16:10:40.659Z,49.89
2023-08-15T16:13:42.993Z,45.46
2023-08-15T16:16:45.420Z,45.10
2023-08-15T16:19:47.805Z,46.27
2023-08-15T16:22:50.222Z,51.87
2023-08-15T16:25:52.579Z,48.44
2023-08-15T16:28:54.964Z,53.29
2023-08-15T16:31:58.510Z,54.21
2023-08-15T16:35:00.898Z,52.88
2023-08-15T16:38:03.374Z,54.26
2023-08-15T16:41:06.494Z,56.46
2023-08-15T16:44:08.930Z,56.82
2023-08-15T16:47:11.321Z,57.75
2023-08-15T16:50:13.757Z,56.72
2023-08-15T16:53:17.593Z,57.30
2023-08-15T16:56:19.996Z,59.61
2023-08-15T16:59:22.447Z,58.45
2023-08-15T17:02:25.256Z,57.87
2023-08-15T17:05:27.986Z,58.89
2023-08-15T17:08:30.388Z,60.72
2023-08-15T17:11:32.789Z,61.39
2023-08-15T17:14:35.192Z,60.04
2023-08-15T17:17:37.741Z,60.72
2023-08-15T17:20:40.167Z,59.18
2023-08-15T17:23:43.129Z,58.41
2023-08-15T17:26:45.488Z,59.95
2023-08-15T17:29:48.042Z,59.86
2023-08-15T17:32:50.417Z,62.96
2023-08-15T17:35:52.826Z,60.74
2023-08-15T17:38:55.210Z,62.25
2023-08-15T17:41:57.646Z,63.80
2023-08-15T17:45:00.297Z,65.89
2023-08-15T17:48:02.703Z,63.09
2023-08-15T17:51:05.122Z,64.09
2023-08-15T17:54:09.300Z,63.38
2023-08-15T17:57:11.628Z,60.73
2023-08-15T18:00:14.605Z,60.48
2023-08-15T18:03:17.006Z,63.01
2023-08-15T18:06:19.764Z,61.92
2023-08-15T18:09:25.426Z,59.23
2023-08-15T18:12:30.650Z,61.22
2023-08-15T18:15:33.074Z,62.44
2023-08-15T18:18:35.923Z,60.95
2023-08-15T18:21:38.315Z,60.83
2023-08-15T18:24:40.822Z,61.45
2023-08-15T18:27:43.204Z,62.62
2023-08-15T18:30:45.694Z,64.77
2023-08-15T18:33:48.073Z,67.45
2023-08-15T18:36:50.475Z,67.84
2023-08-15T18:39:52.827Z,66.82
2023-08-15T18:42:55.194Z,68.96
2023-08-15T18:45:57.692Z,69.55
2023-08-15T18:49:00.179Z,70.48
2023-08-15T18:52:02.744Z,70.05
2023-08-15T18:55:05.652Z,70.75
2023-08-15T18:58:08.946Z,72.25
2023-08-15T19:01:11.368Z,73.35
2023-08-15T19:04:13.728Z,73.88
2023-08-15T19:07:16.330Z,73.42
2023-08-15T19:10:18.699Z,73.45
2023-08-15T19:13:22.832Z,72.87
2023-08-15T19:16:25.396Z,75.67
2023-08-15T19:19:27.924Z,76.16
2023-08-15T19:22:30.298Z,74.64
2023-08-15T19:25:32.806Z,73.76
2023-08-15T19:28:35.242Z,73.59
2023-08-15T19:31:38.258Z,74.07
2023-08-15T19:34:49.878Z,75.10
2023-08-15T19:37:52.302Z,74.25
2023-08-15T19:40:54.634Z,77.19
2023-08-15T19:43:59.534Z,77.99
2023-08-15T19:47:02.205Z,77.66
2023-08-15T19:50:05.556Z,77.68
2023-08-15T19:53:07.960Z,77.72
2023-08-15T19:56:10.486Z,76.30
2023-08-15T19:59:12.870Z,76.81
2023-08-15T20:02:15.233Z,75.93
2023-08-15T20:05:18.853Z,75.63
2023-08-15T20:08:21.238Z,75.76
2023-08-15T20:11:23.601Z,75.11
2023-08-15T20:14:28.733Z,75.67
2023-08-15T20:17:31.338Z,73.57
2023-08-15T20:20:33.810Z,74.86
2023-08-15T20:23:36.213Z,73.86
2023-08-15T20:26:38.556Z,72.68
2023-08-15T20:29:44.593Z,72.97
2023-08-15T20:32:47.044Z,75.09
2023-08-15T20:35:49.483Z,75.50
2023-08-15T20:38:51.899Z,75.13
2023-08-15T20:41:54.608Z,74.35
2023-08-15T20:44:56.994Z,73.69
2023-08-15T20:47:59.433Z,75.45
2023-08-15T20:51:01.887Z,76.29
2023-08-15T20:54:04.608Z,80.20
2023-08-15T20:57:06.959Z,80.57
2023-08-15T21:00:10.865Z,80.72
2023-08-15T21:03:13.712Z,81.33
2023-08-15T21:06:16.415Z,82.19
2023-08-15T21:09:19.366Z,81.12
2023-08-15T21:12:22.114Z,82.72
2023-08-15T21:15:24.789Z,84.50
2023-08-15T21:18:27.217Z,85.43
2023-08-15T21:21:29.586Z,85.62
2023-08-15T21:24:32.002Z,85.53
2023-08-15T21:27:34.412Z,85.87
2023-08-15T21:30:38.031Z,85.24
2023-08-15T21:33:40.510Z,84.92
2023-08-15T21:36:42.893Z,84.47
2023-08-15T21:39:45.231Z,84.32
2023-08-15T21:42:47.771Z,84.12
2023-08-15T21:45:50.390Z,84.10
2023-08-15T21:48:52.975Z,84.21
2023-08-15T21:51:55.387Z,83.97
2023-08-15T21:54:57.794Z,83.82
2023-08-15T21:58:00.205Z,83.91
2023-08-15T22:01:03.548Z,83.46
2023-08-15T22:04:06.094Z,83.70
2023-08-15T22:07:08.458Z,82.85
2023-08-15T22:10:11.021Z,82.83
2023-08-15T22:13:13.419Z,80.55
2023-08-15T22:16:16.158Z,81.12
2023-08-15T22:19:18.637Z,81.89
2023-08-15T22:22:21.047Z,81.44
2023-08-15T22:25:23.852Z,81.93
2023-08-15T22:28:26.242Z,82.79
2023-08-15T22:31:28.971Z,83.79
2023-08-15T22:34:31.409Z,84.52
2023-08-15T22:37:33.965Z,84.91
2023-08-15T22:40:36.615Z,84.64
2023-08-15T22:43:39.124Z,85.93
2023-08-15T22:46:41.519Z,86.83
2023-08-15T22:49:43.900Z,84.83
2023-08-15T22:52:46.286Z,85.22
2023-08-15T22:55:48.706Z,85.99
2023-08-15T22:58:51.078Z,84.08
2023-08-15T23:01:53.482Z,85.98
2023-08-15T23:04:55.842Z,87.59
2023-08-15T23:07:58.174Z,88.48
2023-08-15T23:11:00.548Z,88.96
2023-08-15T23:14:02.899Z,88.88
2023-08-15T23:17:05.255Z,88.76
2023-08-15T23:20:09.321Z,89.23
2023-08-15T23:23:12.074Z,90.18
2023-08-15T23:26:14.506Z,89.58
2023-08-15T23:29:16.946Z,90.53
2023-08-15T23:32:19.314Z,90.95
2023-08-15T23:35:21.818Z,92.06
2023-08-15T23:38:24.223Z,92.52
2023-08-15T23:41:27.498Z,92.38
2023-08-15T23:44:29.914Z,93.11
2023-08-15T23:47:32.524Z,93.07
2023-08-15T23:50:34.916Z,93.76
2023-08-15T23:53:37.341Z,93.15
2023-08-15T23:56:39.779Z,91.90
2023-08-15T23:59:42.196Z,92.19
